createdAt,value
2023-04-24T00:01:02.219Z,1.00
2023-04-24T00:03:31.241Z,1.00
2023-04-24T00:08:28.357Z,1.00
2023-04-24T00:10:57.977Z,1.00
2023-04-24T00:13:26.242Z,1.00
2023-04-24T00:15:54.401Z,1.00
2023-04-24T00:18:22.522Z,1.00
2023-04-24T00:20:50.739Z,1.00
2023-04-24T00:23:18.845Z,1.00
2023-04-24T00:25:47.036Z,1.00
2023-04-24T00:28:16.538Z,1.00
2023-04-24T00:30:44.812Z,1.00
2023-04-24T00:33:13.092Z,1.00
2023-04-24T00:35:41.296Z,1.00
2023-04-24T00:38:09.399Z,1.00
2023-04-24T00:40:37.781Z,1.00
2023-04-24T00:43:07.421Z,99.90
2023-04-24T00:45:38.436Z,1.00
2023-04-24T00:48:06.664Z,1.00
2023-04-24T00:50:35.144Z,1.00
2023-04-24T00:53:03.328Z,1.00
2023-04-24T00:55:32.687Z,1.00
2023-04-24T00:58:01.591Z,1.00
2023-04-24T01:00:30.065Z,1.00
2023-04-24T01:03:01.667Z,1.00
2023-04-24T01:05:30.042Z,1.00
2023-04-24T01:07:58.872Z,1.00
2023-04-24T01:10:29.419Z,1.00
2023-04-24T01:12:58.176Z,1.00
2023-04-24T01:15:26.381Z,1.00
2023-04-24T01:17:54.675Z,1.00
2023-04-24T01:20:27.221Z,1.00
2023-04-24T01:22:58.526Z,1.00
2023-04-24T01:25:27.863Z,1.00
2023-04-24T01:27:59.152Z,1.00
2023-04-24T01:30:27.714Z,1.00
2023-04-24T01:32:56.148Z,1.00
2023-04-24T01:35:24.820Z,1.00
2023-04-24T01:37:52.915Z,1.00
2023-04-24T01:40:25.687Z,1.00
2023-04-24T01:42:54.506Z,1.00
2023-04-24T01:45:22.767Z,1.00
2023-04-24T01:47:52.341Z,1.00
2023-04-24T01:50:20.832Z,1.00
2023-04-24T01:52:49.146Z,1.00
2023-04-24T01:55:17.582Z,1.00
2023-04-24T01:57:48.528Z,1.00
2023-04-24T02:00:16.881Z,1.00
2023-04-24T02:02:48.409Z,1.00
2023-04-24T02:05:17.118Z,1.00
2023-04-24T02:07:45.284Z,1.00
2023-04-24T02:10:13.599Z,1.00
2023-04-24T02:12:44.641Z,1.00
2023-04-24T02:15:14.446Z,1.00
2023-04-24T02:17:42.653Z,1.00
2023-04-24T02:20:10.892Z,1.00
2023-04-24T02:22:40.394Z,1.00
2023-04-24T02:25:09.380Z,1.00
2023-04-24T02:27:37.519Z,1.00
2023-04-24T02:30:09.223Z,1.00
2023-04-24T02:32:40.051Z,1.00
2023-04-24T02:35:09.042Z,1.00
2023-04-24T02:37:37.548Z,1.00
2023-04-24T02:40:07.290Z,1.00
2023-04-24T02:42:35.669Z,1.00
2023-04-24T02:47:32.268Z,1.00
2023-04-24T02:50:03.890Z,99.90
2023-04-24T02:52:32.128Z,1.00
2023-04-24T02:55:00.359Z,1.00
2023-04-24T02:57:28.506Z,1.00
2023-04-24T03:02:25.222Z,1.00
2023-04-24T03:04:53.568Z,1.00
2023-04-24T03:07:25.173Z,1.00
2023-04-24T03:09:53.369Z,1.00
2023-04-24T03:12:21.523Z,1.00
2023-04-24T03:14:49.788Z,1.00
2023-04-24T03:17:17.948Z,1.00
2023-04-24T03:19:46.093Z,1.00
2023-04-24T03:22:15.082Z,1.00
2023-04-24T03:24:45.232Z,1.00
2023-04-24T03:27:16.398Z,1.00
2023-04-24T03:30:07.732Z,99.90
2023-04-24T03:35:16.707Z,1.00
2023-04-24T03:37:44.919Z,1.00
2023-04-24T03:40:34.910Z,99.90
2023-04-24T03:43:05.177Z,99.90
2023-04-24T03:45:33.557Z,99.90
2023-04-24T03:48:01.923Z,99.90
2023-04-24T03:50:31.219Z,99.90
2023-04-24T03:53:00.460Z,99.90
2023-04-24T03:55:39.617Z,99.90
2023-04-24T03:58:07.838Z,99.90
2023-04-24T04:00:36.311Z,99.90
2023-04-24T04:03:24.725Z,99.90
2023-04-24T04:05:54.164Z,99.90
2023-04-24T04:08:22.618Z,99.90
2023-04-24T04:10:52.181Z,99.90
2023-04-24T04:13:20.399Z,99.90
2023-04-24T04:15:48.825Z,99.90
2023-04-24T04:18:17.415Z,99.90
2023-04-24T04:20:45.852Z,99.90
2023-04-24T04:23:16.427Z,99.90
2023-04-24T04:26:09.277Z,99.90
2023-04-24T04:28:54.770Z,99.90
2023-04-24T04:31:24.475Z,99.90
2023-04-24T04:33:52.790Z,99.90
2023-04-24T04:36:21.352Z,99.90
2023-04-24T04:38:55.744Z,99.90
2023-04-24T04:41:51.475Z,99.90
2023-04-24T04:44:22.334Z,99.90
2023-04-24T04:46:51.135Z,99.90
2023-04-24T04:52:00.933Z,99.90
2023-04-24T04:54:30.012Z,99.90
2023-04-24T04:57:03.104Z,99.90
2023-04-24T04:59:32.748Z,99.90
2023-04-24T05:02:06.935Z,99.90
2023-04-24T05:04:35.623Z,99.90
2023-04-24T05:07:04.150Z,99.90
2023-04-24T05:09:35.589Z,99.90
2023-04-24T05:12:08.529Z,99.90
2023-04-24T05:14:44.220Z,99.90
2023-04-24T05:17:14.053Z,99.90
2023-04-24T05:22:12.734Z,99.90
2023-04-24T05:24:49.298Z,99.90
2023-04-24T05:27:41.368Z,99.90
2023-04-24T05:30:16.394Z,99.90
2023-04-24T05:35:15.135Z,99.90
2023-04-24T05:37:43.364Z,99.90
2023-04-24T05:40:13.080Z,99.90
2023-04-24T05:42:42.776Z,99.90
2023-04-24T05:45:15.933Z,99.90
2023-04-24T05:47:44.698Z,99.90
2023-04-24T05:50:22.042Z,99.90
2023-04-24T05:52:50.618Z,99.90
2023-04-24T05:55:27.461Z,99.90
2023-04-24T05:57:57.609Z,99.90
2023-04-24T06:00:28.045Z,99.90
2023-04-24T06:03:05.142Z,99.90
2023-04-24T06:05:34.035Z,99.90
2023-04-24T06:08:04.546Z,99.90
2023-04-24T06:10:37.553Z,99.90
2023-04-24T06:13:08.835Z,99.90
2023-04-24T06:15:40.327Z,99.90
2023-04-24T06:18:12.098Z,99.90
2023-04-24T06:20:41.801Z,99.90
2023-04-24T06:23:11.382Z,99.90
2023-04-24T06:25:40.184Z,99.90
2023-04-24T06:28:09.721Z,99.90
2023-04-24T06:30:38.001Z,99.90
2023-04-24T06:33:19.579Z,99.90
2023-04-24T06:35:49.483Z,99.90
2023-04-24T06:38:18.017Z,99.90
2023-04-24T06:40:46.299Z,99.90
2023-04-24T06:43:16.050Z,99.90
2023-04-24T06:45:45.235Z,99.90
2023-04-24T06:48:13.481Z,99.90
2023-04-24T06:50:42.006Z,99.90
2023-04-24T06:53:12.156Z,99.90
2023-04-24T06:55:40.474Z,99.90
2023-04-24T06:58:09.089Z,99.90
2023-04-24T07:00:38.862Z,99.90
2023-04-24T07:03:07.405Z,99.90
2023-04-24T07:05:36.571Z,99.90
2023-04-24T07:08:05.698Z,99.90
2023-04-24T07:10:36.721Z,99.90
2023-04-24T07:13:05.053Z,99.90
2023-04-24T07:15:33.465Z,99.90
2023-04-24T07:18:05.412Z,99.90
2023-04-24T07:20:34.604Z,99.90
2023-04-24T07:23:02.971Z,99.90
2023-04-24T07:25:32.434Z,99.90
2023-04-24T07:28:00.633Z,99.90
2023-04-24T07:30:29.941Z,99.90
2023-04-24T07:32:58.307Z,99.90
2023-04-24T07:35:29.001Z,99.90
2023-04-24T07:37:57.397Z,99.90
2023-04-24T07:40:25.616Z,99.90
2023-04-24T07:42:54.025Z,99.90
2023-04-24T07:45:22.178Z,99.90
2023-04-24T07:47:50.530Z,99.90
2023-04-24T07:50:19.198Z,99.90
2023-04-24T07:52:48.731Z,99.90
2023-04-24T07:55:16.928Z,99.90
2023-04-24T07:57:45.579Z,99.90
2023-04-24T08:00:14.568Z,99.90
2023-04-24T08:02:43.029Z,99.90
2023-04-24T08:05:12.224Z,99.90
2023-04-24T08:07:40.664Z,99.90
2023-04-24T08:10:12.923Z,99.90
2023-04-24T08:12:41.334Z,99.90
2023-04-24T08:15:10.528Z,99.90
2023-04-24T08:17:38.772Z,99.90
2023-04-24T08:20:11.310Z,99.90
2023-04-24T08:22:39.669Z,99.90
2023-04-24T08:25:08.669Z,99.90
2023-04-24T08:27:39.982Z,99.90
2023-04-24T08:30:09.274Z,99.90
2023-04-24T08:32:38.191Z,99.90
2023-04-24T08:35:07.111Z,99.90
2023-04-24T08:37:35.407Z,99.90
2023-04-24T08:40:04.123Z,99.90
2023-04-24T08:42:34.337Z,99.90
2023-04-24T08:45:03.880Z,99.90
2023-04-24T08:47:33.256Z,99.90
2023-04-24T08:50:03.821Z,99.90
2023-04-24T08:52:32.710Z,99.90
2023-04-24T08:55:02.368Z,99.90
2023-04-24T08:57:32.054Z,99.90
2023-04-24T09:00:01.094Z,99.90
2023-04-24T09:02:31.988Z,99.90
2023-04-24T09:05:00.442Z,99.90
2023-04-24T09:07:32.414Z,99.90
2023-04-24T09:10:02.287Z,99.90
2023-04-24T09:12:30.354Z,99.90
2023-04-24T09:14:59.299Z,99.90
2023-04-24T09:17:29.634Z,99.90
2023-04-24T09:19:59.425Z,99.90
2023-04-24T09:22:31.265Z,99.90
2023-04-24T09:25:05.366Z,99.90
2023-04-24T09:27:33.954Z,99.90
2023-04-24T09:30:03.306Z,99.90
2023-04-24T09:32:32.849Z,99.90
2023-04-24T09:35:13.584Z,99.90
2023-04-24T09:37:43.687Z,99.90
2023-04-24T09:40:17.725Z,99.90
2023-04-24T09:42:47.634Z,99.90
2023-04-24T09:45:16.257Z,99.90
2023-04-24T09:47:45.249Z,99.90
2023-04-24T09:50:20.694Z,99.90
2023-04-24T09:53:00.154Z,99.90
2023-04-24T09:55:28.692Z,99.90
2023-04-24T09:57:58.696Z,1.00
2023-04-24T10:00:29.750Z,99.90
2023-04-24T10:03:02.635Z,99.90
2023-04-24T10:05:33.714Z,99.90
2023-04-24T10:08:06.661Z,99.90
2023-04-24T10:10:36.091Z,99.90
2023-04-24T10:13:05.684Z,99.90
2023-04-24T10:15:34.398Z,99.90
2023-04-24T10:18:02.752Z,99.90
2023-04-24T10:20:32.858Z,99.90
2023-04-24T10:23:02.016Z,99.90
2023-04-24T10:25:32.059Z,99.90
2023-04-24T10:28:01.685Z,99.90
2023-04-24T10:30:33.592Z,99.90
2023-04-24T10:33:02.107Z,99.90
2023-04-24T10:35:35.281Z,99.90
2023-04-24T10:38:07.690Z,99.90
2023-04-24T10:40:37.173Z,1.00
2023-04-24T10:43:08.943Z,1.00
2023-04-24T10:45:39.626Z,1.00
2023-04-24T10:48:12.247Z,1.00
2023-04-24T10:50:50.305Z,1.00
2023-04-24T10:53:20.419Z,1.00
2023-04-24T10:55:50.139Z,1.00
2023-04-24T10:58:18.883Z,1.00
2023-04-24T11:00:58.605Z,1.00
2023-04-24T11:03:30.287Z,1.00
2023-04-24T11:06:02.100Z,1.00
2023-04-24T11:08:39.041Z,1.00
2023-04-24T11:11:12.090Z,1.00
2023-04-24T11:14:09.067Z,1.00
2023-04-24T11:16:41.045Z,1.00
2023-04-24T11:19:11.175Z,1.00
2023-04-24T11:21:45.609Z,1.00
2023-04-24T11:24:34.372Z,1.00
2023-04-24T11:27:08.918Z,1.00
2023-04-24T11:29:48.699Z,1.00
2023-04-24T11:32:19.787Z,1.00
2023-04-24T11:34:52.035Z,1.00
2023-04-24T11:37:21.665Z,1.00
2023-04-24T11:39:53.011Z,1.00
2023-04-24T11:42:23.404Z,1.00
2023-04-24T11:44:53.733Z,1.00
2023-04-24T11:47:21.981Z,1.00
2023-04-24T11:49:53.331Z,1.00
2023-04-24T11:52:23.594Z,1.00
2023-04-24T11:54:52.304Z,1.00
2023-04-24T11:57:23.175Z,1.00
2023-04-24T11:59:51.725Z,1.00
2023-04-24T12:02:27.066Z,1.00
2023-04-24T12:04:57.074Z,1.00
2023-04-24T12:07:26.956Z,1.00
2023-04-24T12:10:00.898Z,99.90
2023-04-24T12:12:30.246Z,99.90
2023-04-24T12:15:00.198Z,35.50
2023-04-24T12:17:30.055Z,1.00
2023-04-24T12:20:03.450Z,1.00
2023-04-24T12:22:46.778Z,99.90
2023-04-24T12:25:15.892Z,99.90
2023-04-24T12:27:45.146Z,99.90
2023-04-24T12:30:15.808Z,99.90
2023-04-24T12:32:45.185Z,99.90
2023-04-24T12:35:13.732Z,99.90
2023-04-24T12:37:47.272Z,99.90
2023-04-24T12:40:16.844Z,99.90
2023-04-24T12:42:46.293Z,99.90
2023-04-24T12:45:15.177Z,99.90
2023-04-24T12:47:45.043Z,98.70
2023-04-24T12:50:15.597Z,97.00
2023-04-24T12:52:45.584Z,21.80
2023-04-24T12:55:14.196Z,99.90
2023-04-24T12:57:42.788Z,99.90
2023-04-24T13:00:11.745Z,99.90
2023-04-24T13:02:40.395Z,99.90
2023-04-24T13:05:09.848Z,29.00
2023-04-24T13:07:37.973Z,99.90
2023-04-24T13:10:09.090Z,99.90
2023-04-24T13:12:37.796Z,74.20
2023-04-24T13:15:06.859Z,11.80
2023-04-24T13:17:35.253Z,99.90
2023-04-24T13:20:03.826Z,99.90
2023-04-24T13:22:32.139Z,99.90
2023-04-24T13:25:00.677Z,38.90
2023-04-24T13:27:30.323Z,99.90
2023-04-24T13:29:58.421Z,80.60
2023-04-24T13:32:27.809Z,99.90
2023-04-24T13:34:56.008Z,57.00
2023-04-24T13:39:52.880Z,99.90
2023-04-24T13:42:21.850Z,99.90
2023-04-24T13:44:52.156Z,99.90
2023-04-24T13:47:20.576Z,99.90
2023-04-24T13:49:49.156Z,99.90
2023-04-24T13:52:17.829Z,99.90
2023-04-24T13:54:46.131Z,99.90
2023-04-24T13:57:16.123Z,1.00
2023-04-24T13:59:44.314Z,99.90
2023-04-24T14:02:13.958Z,1.00
2023-04-24T14:04:42.351Z,99.90
2023-04-24T14:07:10.809Z,99.90
2023-04-24T14:09:38.955Z,99.90
2023-04-24T14:12:08.340Z,99.90
2023-04-24T14:14:36.500Z,99.90
2023-04-24T14:17:04.892Z,99.90
2023-04-24T14:19:34.508Z,99.90
2023-04-24T14:22:03.213Z,99.90
2023-04-24T14:24:31.678Z,1.00
2023-04-24T14:27:00.137Z,99.90
2023-04-24T14:29:28.260Z,99.90
2023-04-24T14:31:56.621Z,1.00
2023-04-24T14:34:24.877Z,99.90
2023-04-24T14:36:55.276Z,99.90
2023-04-24T14:39:23.615Z,99.90
2023-04-24T14:41:51.837Z,99.90
2023-04-24T14:44:19.889Z,99.90
2023-04-24T14:46:48.276Z,99.90
2023-04-24T14:49:16.765Z,99.90
2023-04-24T14:51:45.055Z,1.00
2023-04-24T14:54:15.871Z,99.90
2023-04-24T14:56:45.467Z,99.90
2023-04-24T14:59:14.169Z,1.00
2023-04-24T15:01:42.425Z,99.90
2023-04-24T15:04:11.110Z,99.90
2023-04-24T15:06:39.695Z,99.90
2023-04-24T15:09:07.966Z,99.90
2023-04-24T15:11:38.027Z,99.90
2023-04-24T15:14:06.260Z,99.90
2023-04-24T15:16:34.577Z,1.00
2023-04-24T15:19:03.276Z,1.00
2023-04-24T15:24:00.575Z,99.90
2023-04-24T15:26:28.914Z,99.90
2023-04-24T15:28:58.502Z,99.90
2023-04-24T15:31:26.869Z,99.90
2023-04-24T15:33:55.124Z,99.90
2023-04-24T15:36:23.529Z,99.90
2023-04-24T15:38:52.162Z,99.90
2023-04-24T15:41:20.439Z,99.90
2023-04-24T15:43:48.890Z,99.90
2023-04-24T15:46:18.827Z,39.20
2023-04-24T15:48:47.025Z,1.00
2023-04-24T15:51:15.443Z,99.90
2023-04-24T15:53:43.644Z,99.90
2023-04-24T15:56:12.240Z,40.40
2023-04-24T15:58:40.612Z,61.60
2023-04-24T16:01:08.944Z,72.70
2023-04-24T16:03:38.758Z,99.90
2023-04-24T16:06:07.444Z,99.90
2023-04-24T16:08:36.306Z,99.90
2023-04-24T16:11:04.580Z,99.90
2023-04-24T16:13:34.364Z,99.90
2023-04-24T16:16:02.914Z,99.90
2023-04-24T16:18:31.287Z,99.90
2023-04-24T16:21:00.809Z,99.90
2023-04-24T16:23:28.978Z,99.90
2023-04-24T16:25:57.401Z,91.00
2023-04-24T16:28:27.280Z,41.60
2023-04-24T16:30:55.573Z,99.90
2023-04-24T16:33:26.328Z,1.00
2023-04-24T16:35:54.726Z,99.90
2023-04-24T16:38:25.055Z,99.90
2023-04-24T16:40:53.426Z,99.90
2023-04-24T16:43:21.523Z,99.90
2023-04-24T16:45:50.021Z,99.90
2023-04-24T16:48:18.150Z,99.90
2023-04-24T16:50:47.505Z,99.90
2023-04-24T16:53:15.623Z,99.90
2023-04-24T16:55:46.422Z,99.90
2023-04-24T16:58:14.640Z,99.90
2023-04-24T17:00:42.909Z,99.90
2023-04-24T17:03:12.817Z,99.90
2023-04-24T17:05:41.369Z,80.20
2023-04-24T17:08:09.587Z,99.90
2023-04-24T17:10:37.851Z,76.00
2023-04-24T17:13:07.488Z,99.90
2023-04-24T17:15:36.432Z,99.90
2023-04-24T17:18:05.926Z,99.90
2023-04-24T17:20:34.203Z,99.90
2023-04-24T17:23:02.407Z,99.90
2023-04-24T17:25:30.891Z,99.90
2023-04-24T17:27:59.264Z,86.10
2023-04-24T17:30:28.744Z,58.80
2023-04-24T17:32:57.384Z,24.10
2023-04-24T17:35:25.638Z,1.00
2023-04-24T17:37:53.982Z,1.00
2023-04-24T17:40:22.178Z,99.90
2023-04-24T17:42:50.445Z,99.90
2023-04-24T17:45:18.541Z,26.10
2023-04-24T17:47:48.371Z,1.00
2023-04-24T17:50:16.723Z,1.00
2023-04-24T17:52:44.976Z,1.00
2023-04-24T17:55:13.785Z,1.00
2023-04-24T17:57:42.204Z,1.00
2023-04-24T18:00:11.680Z,1.00
2023-04-24T18:02:40.181Z,1.00
2023-04-24T18:05:10.119Z,1.00
2023-04-24T18:07:39.292Z,1.00
2023-04-24T18:10:08.764Z,1.00
2023-04-24T18:12:37.108Z,1.00
2023-04-24T18:15:13.591Z,1.00
2023-04-24T18:17:43.342Z,1.00
2023-04-24T18:20:14.238Z,1.00
2023-04-24T18:22:43.477Z,1.00
2023-04-24T18:25:12.543Z,1.00
2023-04-24T18:27:41.999Z,1.00
2023-04-24T18:30:14.459Z,1.00
2023-04-24T18:32:43.237Z,1.00
2023-04-24T18:35:13.072Z,1.00
2023-04-24T18:37:41.636Z,1.00
2023-04-24T18:40:11.374Z,1.00
2023-04-24T18:42:39.991Z,1.00
2023-04-24T18:45:08.921Z,1.00
2023-04-24T18:47:37.226Z,1.00
2023-04-24T18:50:05.625Z,1.00
2023-04-24T18:52:35.386Z,1.00
2023-04-24T18:55:05.763Z,1.00
2023-04-24T18:57:34.018Z,1.00
2023-04-24T19:00:02.338Z,1.00
2023-04-24T19:02:31.067Z,1.00
2023-04-24T19:07:27.803Z,1.00
2023-04-24T19:09:57.250Z,1.00
2023-04-24T19:12:25.674Z,1.00
2023-04-24T19:14:56.100Z,1.00
2023-04-24T19:17:25.534Z,1.00
2023-04-24T19:19:53.828Z,1.00
2023-04-24T19:22:22.091Z,1.00
2023-04-24T19:24:50.497Z,1.00
2023-04-24T19:27:20.113Z,1.00
2023-04-24T19:29:48.366Z,1.00
2023-04-24T19:32:16.779Z,1.00
2023-04-24T19:34:44.898Z,1.00
2023-04-24T19:37:13.372Z,1.00
2023-04-24T19:39:41.620Z,1.00
2023-04-24T19:42:09.941Z,1.00
2023-04-24T19:44:39.372Z,1.00
2023-04-24T19:47:07.939Z,1.00
2023-04-24T19:49:36.112Z,1.00
2023-04-24T19:52:04.329Z,1.00
2023-04-24T19:54:32.500Z,1.00
2023-04-24T19:57:00.762Z,1.00
2023-04-24T19:59:28.910Z,1.00
2023-04-24T20:01:59.306Z,1.00
2023-04-24T20:04:27.872Z,1.00
2023-04-24T20:06:56.188Z,1.00
2023-04-24T20:09:24.395Z,1.00
2023-04-24T20:11:53.697Z,1.00
2023-04-24T20:14:22.011Z,1.00
2023-04-24T20:22:02.092Z,99.90
2023-04-24T20:24:30.482Z,1.00
2023-04-24T20:29:27.766Z,1.00
2023-04-24T20:31:56.054Z,1.00
2023-04-24T20:34:24.463Z,1.00
2023-04-24T20:36:52.633Z,1.00
2023-04-24T20:39:22.301Z,1.00
2023-04-24T20:41:50.652Z,1.00
2023-04-24T20:44:18.929Z,1.00
2023-04-24T20:46:47.078Z,1.00
2023-04-24T20:49:15.269Z,1.00
2023-04-24T20:51:44.037Z,1.00
2023-04-24T20:54:12.396Z,1.00
2023-04-24T20:56:41.973Z,1.00
2023-04-24T20:59:10.110Z,1.00
2023-04-24T21:01:38.430Z,1.00
2023-04-24T21:04:06.848Z,1.00
2023-04-24T21:06:35.079Z,1.00
2023-04-24T21:09:04.375Z,1.00
2023-04-24T21:11:32.466Z,1.00
2023-04-24T21:14:04.867Z,1.00
2023-04-24T21:19:03.752Z,1.00
2023-04-24T21:21:34.978Z,1.00
2023-04-24T21:24:04.434Z,1.00
2023-04-24T21:26:33.050Z,1.00
2023-04-24T21:31:33.258Z,1.00
2023-04-24T21:34:01.458Z,1.00
2023-04-24T21:36:31.664Z,1.00
2023-04-24T21:39:01.050Z,1.00
2023-04-24T21:41:29.174Z,1.00
2023-04-24T21:43:57.509Z,1.00
2023-04-24T21:46:26.961Z,1.00
2023-04-24T21:48:56.639Z,1.00
2023-04-24T21:51:25.165Z,1.00
2023-04-24T21:53:53.372Z,1.00
2023-04-24T21:56:21.627Z,1.00
2023-04-24T21:58:49.952Z,1.00
2023-04-24T22:01:18.109Z,1.00
2023-04-24T22:03:46.476Z,1.00
2023-04-24T22:06:16.239Z,1.00
2023-04-24T22:11:25.804Z,1.00
2023-04-24T22:13:55.173Z,1.00
2023-04-24T22:16:24.935Z,1.00
2023-04-24T22:18:55.359Z,1.00
2023-04-24T22:21:25.077Z,1.00
2023-04-24T22:23:53.302Z,1.00
2023-04-24T22:26:21.407Z,1.00
2023-04-24T22:28:49.686Z,1.00
2023-04-24T22:31:17.982Z,1.00
2023-04-24T22:33:47.885Z,1.00
2023-04-24T22:36:16.377Z,1.00
2023-04-24T22:38:45.946Z,1.00
2023-04-24T22:41:14.288Z,1.00
2023-04-24T22:43:42.706Z,1.00
2023-04-24T22:46:10.900Z,1.00
2023-04-24T22:48:39.474Z,1.00
2023-04-24T22:51:07.757Z,1.00
2023-04-24T22:53:36.294Z,1.00
2023-04-24T22:56:06.591Z,1.00
2023-04-24T23:01:04.228Z,1.00
2023-04-24T23:03:35.783Z,1.00
2023-04-24T23:06:04.323Z,1.00
2023-04-24T23:08:32.505Z,1.00
2023-04-24T23:11:01.399Z,1.00
2023-04-24T23:13:30.880Z,1.00
2023-04-24T23:18:27.828Z,1.00
2023-04-24T23:23:24.657Z,1.00
2023-04-24T23:25:53.266Z,1.00
2023-04-24T23:28:21.461Z,1.00
2023-04-24T23:30:51.190Z,1.00
2023-04-24T23:33:19.232Z,1.00
2023-04-24T23:35:47.452Z,1.00
2023-04-24T23:40:44.583Z,99.90
2023-04-24T23:43:12.944Z,1.00
2023-04-24T23:45:41.171Z,1.00
2023-04-24T23:48:10.678Z,99.90
2023-04-24T23:50:38.958Z,1.00
2023-04-24T23:53:07.082Z,1.00
2023-04-24T23:58:04.017Z,99.90
